Island Heights, New Jersey
Current Conditions -  °F | °C
As of 4:35 PM on Thursday 23 Oct 2014 (Local Time) from KMJX Reporting Station
Overcast Overcast  
Wind Chill: 52°   Ceiling: 2400
Heat Index: 52°   Visibility: 10mi
Dew Point: 46°   Wind: 8mph
Humidity: 82%   Direction: 310°NW
Pressure: 29.72"   Gusts: 16mph
Location:  39.94°N, 74.15°W
Report Text: KMJX 232035Z AUTO 31007G14KT 10SM BKN024 OVC030 11/08 A2972 RMK AO1
Loading
Personal Weather Stations






























Interactive Weather Map
Tropical Storm Tracking
New forecast layout! Learn more

10-Day Weather Forecast

Advertisements
Track Severe Weather on mobile